createdAt,value
2023-01-20T00:02:29.784Z,34.3
2023-01-20T00:33:31.711Z,33.8
2023-01-20T01:05:33.770Z,35.4
2023-01-20T01:35:35.786Z,45.1
2023-01-20T02:07:38.351Z,34.3
2023-01-20T02:37:40.284Z,32.2
2023-01-20T03:07:42.418Z,33.2
2023-01-20T03:39:44.393Z,33.2
2023-01-20T04:09:46.259Z,31.6
2023-01-20T04:40:48.393Z,33.2
2023-01-20T05:10:50.003Z,31.6
2023-01-20T05:44:52.023Z,32.7
2023-01-20T06:24:54.652Z,32.7
2023-01-20T06:26:54.932Z,32.7
2023-01-20T06:28:54.996Z,32.2
2023-01-20T07:13:58.087Z,33.2
2023-01-20T07:14:58.151Z,32.7
2023-01-20T07:15:58.302Z,32.2
2023-01-20T08:11:01.000Z,33.8
2023-01-20T08:16:01.000Z,34.3
2023-01-20T09:04:05.000Z,52.1
2023-01-20T09:46:10.000Z,40.2
2023-01-20T10:21:09.941Z,41.9
2023-01-20T10:51:13.648Z,43.5
2023-01-20T11:21:15.663Z,52.6
2023-01-20T11:51:27.891Z,58.5
2023-01-20T12:25:21.406Z,43.5
2023-01-20T12:55:22.432Z,41.9
2023-01-20T13:31:24.581Z,40.2
2023-01-20T14:03:26.658Z,37
2023-01-20T14:33:28.777Z,35.4
2023-01-20T15:03:30.897Z,35.9
2023-01-20T15:33:32.930Z,33.8
2023-01-20T16:04:34.845Z,33.2
2023-01-20T16:42:37.224Z,30.6
2023-01-20T17:13:39.593Z,31.1
2023-01-20T17:43:41.552Z,28.9
2023-01-20T18:15:43.725Z,30
2023-01-20T18:46:45.898Z,30.6
2023-01-20T19:28:48.679Z,30
2023-01-20T19:58:51.089Z,45.1
2023-01-20T20:28:54.210Z,32.2
2023-01-20T20:58:56.230Z,30
2023-01-20T21:33:58.441Z,30
2023-01-20T22:06:00.468Z,27.9
2023-01-20T22:36:02.445Z,27.9
2023-01-20T23:06:04.553Z,31.1
2023-01-20T23:52:07.526Z,27.3
